Sant Julià de Vilatorta





Hora UTC 17:25
Temperatura 27.8 ºC
Humitat 37.3 %
Pressió 1017.3 hPa
Pluja 0.0 mm
Velocitat vent 6.6 km/h
Direcció vent SSW
Radiació solar 291.6 W/m²

Dades diàries 2020-07-05



Hora UTC (hivern +1h; estiu +2h)
Temperatura (ºC) Humitat (%) Pressió (hPa) Velocitat vent (km/h) Precipitació (mm) Radiació solar (W/m²)
Hora UTC Aire Humitat Pressió Vel. Dir. Vel. Max Dir. Intent. màx 5 min. Rad. Sol.
00:05 16.1 94.4 1021.4 2.6 SSE 2.6 S 0.0 0.0
00:10 16.1 94.3 1021.4 2.0 SE 3.4 SSE 0.0 0.0
00:15 16.0 94.4 1021.3 2.3 S 3.5 SSE 0.0 0.0
00:20 16.0 94.5 1021.2 2.2 SE 3.6 SE 0.0 0.0
00:25 16.0 94.8 1021.1 2.0 SSE 3.2 SSE 0.0 0.0
00:30 15.9 94.6 1021.1 1.7 SE 2.9 ESE 0.0 0.0
00:35 15.8 94.6 1021.0 1.4 S 2.7 SE 0.0 0.0
00:40 15.8 94.7 1020.9 1.4 SE 2.2 SSE 0.0 0.0
00:45 15.7 95.0 1020.9 1.2 SSE 2.1 SE 0.0 0.0
00:50 15.7 95.3 1020.9 2.2 ESE 3.4 ESE 0.0 0.3
00:55 15.8 95.7 1020.9 1.1 ESE 2.6 ENE 0.0 0.1
01:00 15.7 95.6 1020.9 2.0 ESE 2.8 ENE 0.0 0.0
01:05 15.7 95.9 1020.8 2.1 SSE 3.2 SSE 0.0 0.0
01:10 15.5 95.8 1020.7 1.3 SSE 2.6 SSE 0.0 0.0
01:15 15.5 95.9 1020.6 1.3 SE 2.5 SE 0.0 0.0
01:20 15.5 95.9 1020.6 1.1 SE 2.1 SE 0.0 0.0
01:25 15.5 96.0 1020.5 1.6 SSE 3.3 SE 0.0 0.0
01:30 15.5 96.1 1020.5 2.6 SE 4.7 SE 0.0 0.0
01:35 15.5 96.2 1020.5 2.4 SSE 4.7 E 0.0 0.1
01:40 15.5 96.0 1020.5 2.0 SSE 3.0 S 0.0 0.0
01:45 15.4 96.0 1020.4 1.7 S 2.7 SSE 0.0 0.0
01:50 15.3 96.0 1020.3 1.9 SSE 2.8 SSE 0.0 0.0
01:55 15.2 95.9 1020.3 2.7 SSE 3.9 SSE 0.0 0.0
02:00 15.1 95.7 1020.3 1.8 ESE 3.5 SE 0.0 0.0
02:05 15.0 95.7 1020.3 2.7 E 3.8 E 0.0 0.0
02:10 15.0 95.9 1020.3 2.3 SSE 4.2 SSE 0.0 0.0
02:15 15.0 96.1 1020.3 2.1 SSE 4.1 SSE 0.0 0.0
02:20 14.9 96.0 1020.2 1.3 S 1.8 SSE 0.0 0.0
02:25 14.8 96.0 1020.1 1.4 SSE 2.2 SSE 0.0 0.0
02:30 14.8 96.1 1020.1 1.8 SE 3.0 SE 0.0 0.0
02:35 14.7 96.1 1020.1 1.2 SSE 2.2 SSE 0.0 0.0
02:40 14.8 96.2 1020.0 1.0 SE 2.1 SSE 0.0 0.0
02:45 14.7 96.2 1020.0 0.6 SSE 1.2 ESE 0.0 0.4
02:50 14.7 96.3 1019.9 1.5 SSE 3.0 SSE 0.0 0.1
02:55 14.7 96.3 1019.9 2.4 SSE 3.4 SSE 0.0 0.0
03:00 14.6 96.2 1019.9 1.9 SSE 2.7 SSE 0.0 0.0
03:05 14.6 96.2 1020.0 3.0 SE 4.0 SE 0.0 0.0
03:10 14.6 96.1 1020.0 2.4 SSE 4.0 SE 0.0 0.0
03:15 14.5 96.0 1020.0 1.4 SE 2.4 SE 0.0 0.0
03:20 14.6 96.1 1020.0 1.2 E 2.7 ENE 0.0 0.5
03:25 14.7 96.4 1020.0 2.6 ESE 3.5 E 0.0 0.6
03:30 14.7 96.4 1020.0 2.1 SSE 3.3 SSE 0.0 0.0
03:35 14.6 96.2 1020.0 2.7 SSE 4.0 SSE 0.0 0.0
03:40 14.6 96.1 1020.0 1.4 SSE 3.1 SSE 0.0 0.0
03:45 14.6 96.0 1020.1 0.7 SSW 1.4 SW 0.0 0.0
03:50 14.6 95.9 1020.1 1.8 E 3.7 E 0.0 0.3
03:55 14.6 96.1 1020.1 1.9 SE 3.3 E 0.0 0.8
04:00 14.6 96.2 1020.1 1.9 SSW 2.8 SSW 0.0 0.3
04:05 14.7 96.4 1020.1 1.7 S 2.3 S 0.0 0.6
04:10 14.9 96.5 1020.2 1.9 SE 3.1 SE 0.0 0.8
04:15 15.0 96.4 1020.2 1.1 NE 2.2 ENE 0.0 1.6
04:20 15.1 96.5 1020.2 1.2 SE 2.7 SSE 0.0 2.7
04:25 15.3 96.7 1020.2 1.8 SSE 2.9 SSE 0.0 3.3
04:30 15.3 96.6 1020.2 2.3 S 3.5 SSW 0.0 4.5
04:35 15.2 96.7 1020.2 2.0 SSE 3.7 SSE 0.0 6.2
04:40 15.3 96.8 1020.2 0.9 ESE 2.1 S 0.0 9.0
04:45 15.3 96.9 1020.2 2.5 S 3.6 SSW 0.0 11.0
04:50 15.4 97.1 1020.2 1.1 S 2.5 SSE 0.0 13.9
04:55 15.4 97.2 1020.2 1.3 S 3.3 SE 0.0 14.2
05:00 15.5 97.3 1020.2 2.5 SSE 4.1 SE 0.0 17.9
05:05 15.5 97.4 1020.2 2.7 SSE 4.2 SSE 0.0 21.7
05:10 15.4 97.4 1020.2 3.2 SSE 4.4 SE 0.0 24.6
05:15 15.5 97.5 1020.3 2.2 SSE 4.5 SE 0.0 40.0
05:20 15.5 97.6 1020.3 1.0 E 2.0 NE 0.0 38.7
05:25 15.4 97.6 1020.3 0.9 E 1.7 SSW 0.0 44.3
05:30 15.4 97.7 1020.3 2.5 S 5.2 SSE 0.0 42.9
05:35 15.3 97.7 1020.3 3.6 SSE 5.4 SSE 0.0 53.9
05:40 15.4 97.7 1020.3 2.1 SE 3.3 SSE 0.0 79.0
05:45 15.5 97.7 1020.3 1.7 SE 3.4 SE 0.0 110.5
05:50 15.7 97.8 1020.3 1.0 S 2.0 SSE 0.0 167.8
05:55 16.2 97.8 1020.3 0.9 ESE 2.3 S 0.0 177.4
06:00 16.8 97.7 1020.3 1.4 WSW 3.9 WSW 0.0 186.7
06:05 17.1 96.3 1020.4 2.1 SW 3.5 SSW 0.0 198.4
06:10 17.0 94.1 1020.4 2.2 WNW 4.3 WNW 0.0 212.6
06:15 17.2 92.1 1020.4 2.0 WSW 4.2 W 0.0 224.6
06:20 17.5 90.5 1020.4 2.2 NNW 4.4 NNE 0.0 236.5
06:25 17.5 88.7 1020.4 1.5 NNW 3.3 WNW 0.0 258.7
06:30 17.7 88.3 1020.5 3.2 NNW 5.8 N 0.0 277.1
06:35 17.6 86.2 1020.5 3.1 N 5.8 N 0.0 295.7
06:40 17.9 86.1 1020.5 2.5 N 6.4 NNW 0.0 315.7
06:45 18.0 85.5 1020.5 2.8 NW 6.7 NW 0.0 332.7
06:50 18.1 84.6 1020.6 3.5 NNW 5.9 NNW 0.0 349.6
06:55 18.0 85.0 1020.6 3.1 NNW 5.4 NNW 0.0 364.3
07:00 18.1 84.6 1020.6 3.7 N 5.8 NNW 0.0 379.8
07:05 18.4 84.6 1020.6 2.0 NNW 5.9 NW 0.0 394.8
07:10 18.7 83.1 1020.7 3.2 NNW 6.4 NNW 0.0 413.2
07:15 18.9 82.3 1020.7 3.2 N 5.8 WNW 0.0 427.3
07:20 18.9 82.5 1020.8 3.0 N 5.8 N 0.0 442.3
07:25 19.1 82.1 1020.8 3.0 NW 6.0 WNW 0.0 456.5
07:30 19.3 81.3 1020.8 2.8 NW 5.4 NNW 0.0 471.9
07:35 19.6 80.6 1020.9 1.4 W 6.0 WSW 0.0 486.0
07:40 20.1 77.3 1020.9 2.4 NW 5.7 W 0.0 500.3
07:45 20.3 75.8 1020.9 3.9 NNW 8.0 NW 0.0 517.1
07:50 20.3 76.6 1020.9 2.9 NW 6.0 WSW 0.0 531.3
07:55 20.8 75.2 1020.9 2.7 NW 6.3 WNW 0.0 545.8
08:00 20.9 74.4 1020.9 2.8 WNW 5.6 W 0.0 560.8
08:05 21.1 73.7 1020.8 1.8 WNW 4.0 WSW 0.0 572.7
08:10 21.3 73.1 1020.7 2.4 NNW 4.6 NW 0.0 585.7
08:15 21.5 71.8 1020.7 1.1 N 2.7 NNE 0.0 597.1
08:20 22.1 70.8 1020.7 3.2 NW 8.6 NNW 0.0 609.8
08:25 21.5 71.3 1020.7 4.3 N 7.6 NNW 0.0 626.4
08:30 21.4 72.5 1020.7 3.3 N 5.7 NNE 0.0 641.7
08:35 21.6 71.0 1020.6 2.3 NNE 5.8 NNW 0.0 653.4
08:40 22.2 68.2 1020.6 2.3 NNW 5.8 N 0.0 663.6
08:45 22.6 68.1 1020.6 2.2 N 4.3 NNE 0.0 674.1
08:50 23.3 64.0 1020.5 2.9 NW 6.3 NW 0.0 692.9
08:55 23.2 62.0 1020.4 1.2 W 3.0 WNW 0.0 701.8
09:00 23.2 62.7 1020.4 3.2 NNW 5.4 NNE 0.0 714.2
09:05 23.2 62.9 1020.4 4.9 NNW 9.0 NNW 0.0 733.8
09:10 23.5 61.7 1020.4 2.4 N 5.3 WNW 0.0 739.8
09:15 24.2 58.9 1020.4 2.7 SW 4.5 SSW 0.0 752.9
09:20 24.6 58.4 1020.4 2.8 N 7.9 NW 0.0 762.0
09:25 24.5 54.8 1020.4 4.2 NE 7.2 NE 0.0 772.1
09:30 24.7 52.5 1020.4 1.8 E 4.1 NE 0.0 780.5
09:35 24.9 52.1 1020.4 3.5 N 7.7 N 0.0 794.9
09:40 24.9 50.9 1020.4 1.8 W 4.4 SW 0.0 804.0
09:45 25.5 48.6 1020.4 2.8 NE 6.5 NE 0.0 811.0
09:50 25.5 47.1 1020.4 3.7 NNE 8.0 NNW 0.0 817.0
09:55 25.3 47.9 1020.4 3.9 N 9.0 NNE 0.0 837.0
10:00 25.1 46.7 1020.4 4.7 N 8.6 NNE 0.0 848.0
10:05 25.2 46.2 1020.4 3.1 N 6.9 NE 0.0 854.0
10:10 25.3 44.0 1020.3 1.3 NW 4.0 N 0.0 862.0
10:15 25.7 45.3 1020.3 3.0 WNW 7.4 W 0.0 872.0
10:20 25.9 42.2 1020.3 5.2 NW 9.1 NW 0.0 885.0
10:25 25.8 42.5 1020.3 5.2 NW 9.6 WNW 0.0 895.0
10:30 26.0 42.6 1020.3 3.3 WNW 6.3 WNW 0.0 902.0
10:35 26.6 43.7 1020.2 4.0 W 7.9 N 0.0 905.0
10:40 26.3 42.7 1020.2 7.0 NW 13.1 NW 0.0 915.0
10:45 26.1 45.0 1020.1 5.3 NW 11.7 NW 0.0 924.0
10:50 26.4 43.6 1020.1 2.9 SE 8.2 SSW 0.0 924.0
10:55 26.8 44.8 1020.1 5.1 NW 10.0 NW 0.0 939.0
11:00 26.9 43.1 1020.1 5.7 NW 10.3 N 0.0 948.0
11:05 26.8 45.4 1020.1 5.8 WNW 12.2 NW 0.0 951.0
11:10 26.8 43.8 1020.0 7.9 NNW 12.2 NNW 0.0 959.0
11:15 26.6 42.7 1020.0 3.5 N 8.3 NW 0.0 953.0
11:20 26.8 43.4 1019.9 5.0 WNW 10.3 WNW 0.0 954.0
11:25 27.0 45.6 1019.9 5.6 N 10.6 N 0.0 958.0
11:30 27.5 43.6 1019.8 5.7 NW 12.6 WNW 0.0 966.0
11:35 27.2 42.7 1019.8 6.0 NNW 11.2 NNW 0.0 972.0
11:40 27.5 39.7 1019.7 5.7 SSW 9.9 S 0.0 968.0
11:45 27.6 37.9 1019.7 5.8 NW 12.2 NW 0.0 972.0
11:50 27.6 40.1 1019.7 3.8 NW 8.3 W 0.0 969.0
11:55 27.9 35.9 1019.7 4.4 S 9.5 SE 0.0 972.0
12:00 28.3 35.2 1019.6 5.0 S 11.6 SSE 0.0 978.0
12:05 28.5 33.9 1019.6 3.1 SW 7.4 SSW 0.0 977.0
12:10 28.5 33.9 1019.5 6.7 S 15.0 SSE 0.0 974.0
12:15 28.6 35.0 1019.5 4.8 SW 10.0 SW 0.0 975.0
12:20 28.6 33.2 1019.5 6.3 SSW 15.2 SSW 0.0 975.0
12:25 28.4 32.4 1019.4 6.0 S 11.1 S 0.0 974.0
12:30 28.4 32.2 1019.4 6.7 SW 13.1 NW 0.0 969.0
12:35 28.4 32.2 1019.4 8.2 WNW 16.2 W 0.0 966.0
12:40 28.5 32.3 1019.3 8.0 NW 15.1 N 0.0 967.0
12:45 28.6 34.2 1019.3 4.3 WSW 9.2 NW 0.0 959.0
12:50 28.7 35.2 1019.3 6.4 S 13.0 SSW 0.0 951.0
12:55 28.7 34.2 1019.2 4.0 W 11.2 S 0.0 945.0
13:00 28.9 36.0 1019.2 4.1 WNW 12.6 W 0.0 932.0
13:05 29.1 36.4 1019.2 5.5 WSW 12.4 NW 0.0 924.0
13:10 29.0 35.4 1019.1 5.7 WNW 12.2 WNW 0.0 918.0
13:15 29.1 36.6 1019.1 4.3 WSW 8.1 ESE 0.0 912.0
13:20 29.3 34.5 1019.0 5.2 WSW 18.3 WNW 0.0 909.0
13:25 29.1 33.5 1019.0 7.0 W 13.4 NW 0.0 902.0
13:30 28.9 34.4 1018.9 6.5 WNW 12.7 WNW 0.0 898.0
13:35 29.0 34.4 1018.9 9.7 S 17.0 SSW 0.0 893.0
13:40 28.9 34.6 1018.8 7.6 S 13.0 S 0.0 889.0
13:45 28.9 35.9 1018.8 4.1 SSW 8.4 SSW 0.0 870.0
13:50 28.9 34.1 1018.8 4.5 WSW 9.9 NW 0.0 864.0
13:55 29.0 33.4 1018.7 3.9 WSW 10.9 NW 0.0 857.0
14:00 29.0 31.7 1018.6 4.0 N 9.4 NW 0.0 841.0
14:05 29.1 35.1 1018.6 6.0 SW 14.0 SSW 0.0 827.0
14:10 29.1 36.3 1018.5 4.7 SW 11.5 SSW 0.0 819.0
14:15 29.2 34.9 1018.5 7.8 SSW 13.5 SSE 0.0 811.0
14:20 29.0 35.5 1018.4 5.2 S 9.5 S 0.0 807.0
14:25 29.3 34.8 1018.4 6.9 S 17.0 SSW 0.0 799.9
14:30 29.4 32.7 1018.4 6.4 WNW 13.1 WNW 0.0 786.4
14:35 29.4 33.7 1018.1 4.7 WNW 9.8 NW 0.0 774.2
14:40 29.7 32.4 1018.0 6.0 WSW 14.7 SSW 0.0 758.4
14:45 29.6 30.1 1017.9 2.9 S 7.2 SSW 0.0 747.0
14:50 29.6 31.3 1017.8 5.1 WSW 16.5 NW 0.0 734.2
14:55 29.4 31.1 1017.8 7.0 NW 12.6 NW 0.0 725.2
15:00 29.5 32.3 1017.8 6.1 WNW 15.8 WNW 0.0 715.4
15:05 29.8 33.2 1017.7 6.6 NW 17.3 W 0.0 696.0
15:10 29.7 32.8 1017.7 5.8 W 14.1 NW 0.0 684.6
15:15 29.7 32.5 1017.7 3.8 WNW 10.7 NW 0.0 673.1
15:20 29.6 34.5 1017.6 10.0 W 27.8 NW 0.0 658.5
15:25 29.1 37.2 1017.6 5.9 SSW 13.3 SW 0.0 641.1
15:30 29.2 38.3 1017.6 4.8 SSW 14.7 SSW 0.0 620.1
15:35 29.3 37.9 1017.6 4.8 SW 10.7 SSW 0.0 611.0
15:40 29.2 36.6 1017.6 6.0 SSW 11.3 SW 0.0 594.1
15:45 29.0 38.0 1017.5 8.7 S 15.2 SSE 0.0 588.9
15:50 29.2 37.7 1017.5 4.6 SSW 8.7 SSW 0.0 576.2
15:55 29.3 37.4 1017.5 8.0 SSW 17.6 SSW 0.0 559.3
16:00 28.8 37.6 1017.5 11.7 SSW 19.9 SSE 0.0 548.9
16:05 28.6 38.3 1017.5 7.8 SSW 17.7 SSW 0.0 534.0
16:10 28.7 38.7 1017.4 9.8 SSW 17.8 SSW 0.0 523.2
16:15 28.6 38.1 1017.4 9.6 SSW 15.8 SSW 0.0 508.2
16:20 28.5 38.5 1017.4 7.3 SSW 13.1 SW 0.0 490.7
16:25 28.6 38.8 1017.4 6.2 S 12.7 SW 0.0 475.7
16:30 28.6 38.0 1017.4 6.9 SSW 12.9 SSW 0.0 465.9
16:35 28.5 37.4 1017.4 7.8 SSW 14.4 S 0.0 447.5
16:40 28.3 38.8 1017.4 5.9 SSW 14.1 SSW 0.0 427.0
16:45 28.5 38.4 1017.4 8.1 S 17.8 SSW 0.0 410.9
16:50 28.4 37.4 1017.4 7.6 S 18.4 S 0.0 398.9
16:55 28.1 37.3 1017.4 10.7 S 20.5 S 0.0 385.7
17:00 27.9 38.3 1017.3 7.4 S 13.9 SSE 0.0 367.7
17:05 27.9 38.0 1017.3 8.4 S 16.7 S 0.0 353.2
17:10 27.9 38.0 1017.3 7.8 S 15.2 SSE 0.0 338.7
17:15 27.9 37.6 1017.3 8.7 SSW 20.4 S 0.0 325.7
17:20 27.8 37.3 1017.3 8.2 SSW 17.6 SSW 0.0 310.3
17:25 27.8 37.3 1017.3 6.6 SSW 16.4 S 0.0 291.6
Màxima 29.9 97.8 1021.4 11.7 SSW 27.8 NW 0.0 978.0
Mínima 14.5 30.1 1017.3
Total 0.0